Time;durP1;ratioP1;P1;durP2;ratioP2;P2;SDS_P1;SDS_P2;PMS_P1;PMS_P2;Temp;Humidity;BMP_temperature;BMP_pressure;BME280_temperature;BME280_humidity;BME280_pressure;Samples;Min_cycle;Max_cycle;Signal;HPM_P1;HPM_P2
2021/09/22 00:00:17;;;;;;;11.57;9.38;;;;;;;;;;5024627;28;20104;-74
2021/09/22 00:02:43;;;;;;;11.93;9.45;;;;;;;;;;5014482;28;20487;-74
2021/09/22 00:05:10;;;;;;;10.32;8.90;;;;;;;;;;5021840;28;20036;-74
2021/09/22 00:07:36;;;;;;;12.57;9.20;;;;;;;;;;5034189;28;20030;-74
2021/09/22 00:10:02;;;;;;;11.38;8.98;;;;;;;;;;5029729;28;20042;-74
2021/09/22 00:12:28;;;;;;;10.90;8.90;;;;;;;;;;5022281;28;20018;-74
2021/09/22 00:14:54;;;;;;;12.45;8.30;;;;;;;;;;5033653;28;20065;-74
2021/09/22 00:17:20;;;;;;;11.00;9.10;;;;;;;;;;5031503;28;20066;-74
2021/09/22 00:19:46;;;;;;;11.85;8.68;;;;;;;;;;5025354;28;20482;-74
2021/09/22 00:22:12;;;;;;;10.38;8.20;;;;;;;;;;5023886;28;20130;-74
2021/09/22 00:24:38;;;;;;;11.40;8.48;;;;;;;;;;5020289;28;20037;-74
2021/09/22 00:27:04;;;;;;;12.10;8.55;;;;;;;;;;5033583;28;20494;-74
2021/09/22 00:29:30;;;;;;;11.10;8.82;;;;;;;;;;5045808;28;20529;-74
2021/09/22 00:32:00;;;;;;;11.90;9.18;;;;;;;;;;5030922;28;20467;-74
2021/09/22 00:34:26;;;;;;;12.73;9.00;;;;;;;;;;5024582;28;20033;-74
2021/09/22 00:36:52;;;;;;;10.30;8.75;;;;;;;;;;5033311;28;20021;-74
2021/09/22 00:39:18;;;;;;;10.90;9.18;;;;;;;;;;5047314;28;20165;-74
2021/09/22 00:41:44;;;;;;;11.75;8.88;;;;;;;;;;5026716;28;20025;-74
2021/09/22 00:44:10;;;;;;;12.00;8.48;;;;;;;;;;5033340;28;20044;-74
2021/09/22 00:46:36;;;;;;;11.13;8.90;;;;;;;;;;5033003;28;20029;-74
2021/09/22 00:49:03;;;;;;;11.68;9.05;;;;;;;;;;5028898;28;20053;-75
2021/09/22 00:51:29;;;;;;;10.25;8.48;;;;;;;;;;5023179;28;20487;-74
2021/09/22 00:53:55;;;;;;;10.98;8.90;;;;;;;;;;5022355;28;20082;-73
2021/09/22 00:56:24;;;;;;;12.13;8.82;;;;;;;;;;5024047;28;20025;-74
2021/09/22 00:58:50;;;;;;;10.68;8.63;;;;;;;;;;5032357;28;20045;-74
2021/09/22 01:01:16;;;;;;;11.10;8.45;;;;;;;;;;5004754;28;20474;-74
2021/09/22 01:03:42;;;;;;;10.00;8.60;;;;;;;;;;5030407;28;20022;-74
2021/09/22 01:06:08;;;;;;;11.80;8.85;;;;;;;;;;5025429;28;20091;-73
2021/09/22 01:08:35;;;;;;;11.52;7.95;;;;;;;;;;5025964;28;20026;-75
2021/09/22 01:11:01;;;;;;;10.00;8.43;;;;;;;;;;5023021;28;20100;-74
2021/09/22 01:13:27;;;;;;;11.95;8.10;;;;;;;;;;5024517;28;20023;-75
2021/09/22 01:15:54;;;;;;;9.98;7.75;;;;;;;;;;5030768;28;20040;-74
2021/09/22 01:18:22;;;;;;;11.05;8.48;;;;;;;;;;5029146;28;20078;-74
2021/09/22 01:20:53;;;;;;;11.55;8.20;;;;;;;;;;5029445;28;20021;-74
2021/09/22 01:23:19;;;;;;;9.70;8.18;;;;;;;;;;5031021;28;20021;-74
2021/09/22 01:25:47;;;;;;;10.95;8.43;;;;;;;;;;5032415;28;20037;-74
2021/09/22 01:28:14;;;;;;;10.73;8.45;;;;;;;;;;5044480;28;20052;-75
2021/09/22 01:30:41;;;;;;;15.75;8.85;;;;;;;;;;5030534;28;20034;-74
2021/09/22 01:33:09;;;;;;;10.40;8.70;;;;;;;;;;5032483;28;20080;-73
2021/09/22 01:35:37;;;;;;;10.77;8.15;;;;;;;;;;5028982;28;20032;-74
2021/09/22 01:38:07;;;;;;;9.80;8.05;;;;;;;;;;5037212;28;20020;-75
2021/09/22 01:40:33;;;;;;;9.82;8.45;;;;;;;;;;5033948;28;20498;-74
2021/09/22 01:43:00;;;;;;;13.93;8.63;;;;;;;;;;5032025;28;20501;-74
2021/09/22 01:45:26;;;;;;;10.00;8.70;;;;;;;;;;5029116;28;20076;-75
2021/09/22 01:47:52;;;;;;;9.98;8.15;;;;;;;;;;5040210;28;20029;-74
2021/09/22 01:50:19;;;;;;;9.30;8.25;;;;;;;;;;5030792;28;20043;-73
2021/09/22 01:52:46;;;;;;;10.15;7.95;;;;;;;;;;5025605;28;20117;-74
2021/09/22 01:55:13;;;;;;;10.27;8.02;;;;;;;;;;5025462;28;20021;-73
2021/09/22 01:57:39;;;;;;;11.05;8.95;;;;;;;;;;5031129;28;20480;-74
2021/09/22 02:00:06;;;;;;;10.75;8.23;;;;;;;;;;5018366;28;20055;-74
2021/09/22 02:02:33;;;;;;;11.10;9.30;;;;;;;;;;5029776;28;20036;-74
2021/09/22 02:04:59;;;;;;;12.23;9.20;;;;;;;;;;5034083;28;20037;-74
2021/09/22 02:07:25;;;;;;;12.00;9.13;;;;;;;;;;5021744;28;20425;-74
2021/09/22 02:09:51;;;;;;;12.00;9.77;;;;;;;;;;5033460;28;20112;-74
2021/09/22 02:12:18;;;;;;;12.40;9.00;;;;;;;;;;5023042;28;20052;-74
2021/09/22 02:14:44;;;;;;;12.77;8.85;;;;;;;;;;5035992;28;20088;-74
2021/09/22 02:17:10;;;;;;;10.85;9.40;;;;;;;;;;5044796;28;20094;-73
2021/09/22 02:19:36;;;;;;;13.13;9.63;;;;;;;;;;5007387;28;20060;-74
2021/09/22 02:22:02;;;;;;;12.35;9.20;;;;;;;;;;5035798;28;20104;-75
2021/09/22 02:24:29;;;;;;;12.23;9.50;;;;;;;;;;5035978;28;20100;-73
2021/09/22 02:26:55;;;;;;;13.80;9.70;;;;;;;;;;5035807;28;20467;-74
2021/09/22 02:29:21;;;;;;;13.13;9.65;;;;;;;;;;5021738;28;20041;-73
2021/09/22 02:31:48;;;;;;;12.00;9.88;;;;;;;;;;5024310;28;20087;-73
2021/09/22 02:34:14;;;;;;;12.60;9.63;;;;;;;;;;5037717;28;20026;-74
2021/09/22 02:36:41;;;;;;;10.85;9.63;;;;;;;;;;5020020;28;20034;-74
2021/09/22 02:39:07;;;;;;;14.43;10.10;;;;;;;;;;5027294;28;20053;-74
2021/09/22 02:41:34;;;;;;;13.20;10.43;;;;;;;;;;5033479;28;20112;-74
2021/09/22 02:44:00;;;;;;;11.77;9.43;;;;;;;;;;5017848;28;20429;-74
2021/09/22 02:46:27;;;;;;;13.13;9.93;;;;;;;;;;5035322;28;20367;-74
2021/09/22 02:48:53;;;;;;;11.55;9.50;;;;;;;;;;5026489;28;20038;-74
2021/09/22 02:51:19;;;;;;;12.20;9.93;;;;;;;;;;5028863;28;20029;-74
2021/09/22 02:53:46;;;;;;;13.35;10.30;;;;;;;;;;5035399;28;20025;-74
2021/09/22 02:56:16;;;;;;;11.98;10.57;;;;;;;;;;5037601;28;20361;-74
2021/09/22 02:58:45;;;;;;;12.27;10.85;;;;;;;;;;5015012;28;20378;-74
2021/09/22 03:01:13;;;;;;;12.18;10.30;;;;;;;;;;5028066;28;20021;-74
2021/09/22 03:03:39;;;;;;;12.93;10.35;;;;;;;;;;5034771;28;20429;-73
2021/09/22 03:06:05;;;;;;;12.70;10.55;;;;;;;;;;5034331;28;20036;-73
2021/09/22 03:08:31;;;;;;;16.92;10.80;;;;;;;;;;5050904;28;20067;-74
2021/09/22 03:10:58;;;;;;;13.60;11.30;;;;;;;;;;5040595;28;20037;-74
2021/09/22 03:13:24;;;;;;;15.15;11.82;;;;;;;;;;5034931;28;20021;-73
2021/09/22 03:15:50;;;;;;;12.40;10.88;;;;;;;;;;5034857;28;20030;-73
2021/09/22 03:18:16;;;;;;;14.32;11.13;;;;;;;;;;5025481;28;20084;-74
2021/09/22 03:20:42;;;;;;;16.42;11.77;;;;;;;;;;5030534;28;20037;-74
2021/09/22 03:23:08;;;;;;;13.82;11.05;;;;;;;;;;5034473;28;20029;-74
2021/09/22 03:25:34;;;;;;;16.65;11.55;;;;;;;;;;5032008;28;20498;-74
2021/09/22 03:28:00;;;;;;;13.68;11.40;;;;;;;;;;5029959;28;20250;-73
2021/09/22 03:30:26;;;;;;;20.42;13.20;;;;;;;;;;5016771;28;20026;-74
2021/09/22 03:32:52;;;;;;;13.43;11.38;;;;;;;;;;5025541;28;20029;-73
2021/09/22 03:35:18;;;;;;;17.08;11.70;;;;;;;;;;5034148;28;20029;-73
2021/09/22 03:37:44;;;;;;;12.85;11.07;;;;;;;;;;5030982;28;20025;-74
2021/09/22 03:40:11;;;;;;;17.05;11.20;;;;;;;;;;5032751;28;20056;-73
2021/09/22 03:42:37;;;;;;;12.80;10.90;;;;;;;;;;5032003;28;20439;-74
2021/09/22 03:45:04;;;;;;;20.33;11.55;;;;;;;;;;5034665;28;20030;-74
2021/09/22 03:47:30;;;;;;;12.60;10.57;;;;;;;;;;5015857;28;20089;-75
2021/09/22 03:49:57;;;;;;;14.35;11.63;;;;;;;;;;5015032;28;20087;-74
2021/09/22 03:52:23;;;;;;;18.17;12.02;;;;;;;;;;5034531;28;20372;-73
2021/09/22 03:54:49;;;;;;;14.27;11.13;;;;;;;;;;5024190;28;20030;-74
2021/09/22 03:57:15;;;;;;;15.63;11.23;;;;;;;;;;5033655;28;20026;-74
2021/09/22 03:59:41;;;;;;;13.70;11.48;;;;;;;;;;5028850;28;20040;-73
2021/09/22 04:02:07;;;;;;;14.82;10.93;;;;;;;;;;5039357;28;20104;-72
2021/09/22 04:04:33;;;;;;;13.73;11.68;;;;;;;;;;5029332;28;20030;-73
2021/09/22 04:06:59;;;;;;;15.18;11.82;;;;;;;;;;5035117;28;20116;-73
2021/09/22 04:09:26;;;;;;;14.25;11.18;;;;;;;;;;5034110;28;20108;-74
2021/09/22 04:11:55;;;;;;;14.02;11.18;;;;;;;;;;5032352;28;20025;-74
2021/09/22 04:14:21;;;;;;;12.13;10.63;;;;;;;;;;5031650;28;20025;-74
2021/09/22 04:16:47;;;;;;;15.90;10.40;;;;;;;;;;5027055;28;20180;-74
2021/09/22 04:19:13;;;;;;;12.10;10.43;;;;;;;;;;5017854;28;20047;-74
2021/09/22 04:21:51;;;;;;;14.30;10.85;;;;;;;;;;5023983;28;20022;-74
2021/09/22 04:24:17;;;;;;;12.95;10.63;;;;;;;;;;5034706;28;20033;-74
2021/09/22 04:26:43;;;;;;;15.43;11.25;;;;;;;;;;5041076;28;20390;-74
2021/09/22 04:29:09;;;;;;;14.95;10.40;;;;;;;;;;5036454;28;20152;-73
2021/09/22 04:31:37;;;;;;;13.68;9.70;;;;;;;;;;5028636;28;20079;-74
2021/09/22 04:34:03;;;;;;;12.48;10.13;;;;;;;;;;5027243;28;20112;-75
2021/09/22 04:36:29;;;;;;;11.27;10.07;;;;;;;;;;5029978;28;20072;-73
2021/09/22 04:38:55;;;;;;;13.25;10.60;;;;;;;;;;5033691;28;20029;-74
2021/09/22 04:41:21;;;;;;;14.27;10.70;;;;;;;;;;5016351;28;20087;-74
2021/09/22 04:43:47;;;;;;;12.63;10.45;;;;;;;;;;5025629;28;20038;-74
2021/09/22 04:46:14;;;;;;;13.70;10.45;;;;;;;;;;5034858;28;20498;-73
2021/09/22 04:48:41;;;;;;;14.05;9.93;;;;;;;;;;5023737;28;20025;-74
2021/09/22 04:51:11;;;;;;;12.63;9.80;;;;;;;;;;5010214;28;20030;-74
2021/09/22 04:53:37;;;;;;;14.18;10.48;;;;;;;;;;5020947;28;20032;-74
2021/09/22 04:56:03;;;;;;;13.80;10.00;;;;;;;;;;5014485;28;20044;-74
2021/09/22 04:58:29;;;;;;;12.65;9.70;;;;;;;;;;5025432;28;20032;-74
2021/09/22 05:01:01;;;;;;;14.35;10.00;;;;;;;;;;5026182;28;20037;-74
2021/09/22 05:03:27;;;;;;;12.63;9.43;;;;;;;;;;5028218;28;20022;-74
2021/09/22 05:05:53;;;;;;;16.08;10.02;;;;;;;;;;5022964;28;20029;-74
2021/09/22 05:08:19;;;;;;;12.38;9.50;;;;;;;;;;5031480;28;20533;-74
2021/09/22 05:10:45;;;;;;;17.05;9.43;;;;;;;;;;5031140;28;20057;-74
2021/09/22 05:13:11;;;;;;;13.57;9.80;;;;;;;;;;5027780;28;20053;-74
2021/09/22 05:15:37;;;;;;;13.38;9.27;;;;;;;;;;5026806;28;20041;-73
2021/09/22 05:18:03;;;;;;;15.15;9.80;;;;;;;;;;5019383;28;20108;-74
2021/09/22 05:20:30;;;;;;;14.90;9.63;;;;;;;;;;5029338;28;20509;-74
2021/09/22 05:22:56;;;;;;;10.90;8.45;;;;;;;;;;5031098;28;20427;-74
2021/09/22 05:25:22;;;;;;;14.30;9.55;;;;;;;;;;5023787;28;20041;-73
2021/09/22 05:27:50;;;;;;;13.70;8.60;;;;;;;;;;5044791;28;20045;-74
2021/09/22 05:30:17;;;;;;;13.48;8.93;;;;;;;;;;5005658;28;20368;-74
2021/09/22 05:32:43;;;;;;;10.57;7.53;;;;;;;;;;5029306;28;20025;-74
2021/09/22 05:35:11;;;;;;;12.30;8.23;;;;;;;;;;5024703;28;20087;-73
2021/09/22 05:37:45;;;;;;;12.80;8.25;;;;;;;;;;5032555;28;20033;-74
2021/09/22 05:40:12;;;;;;;11.50;7.82;;;;;;;;;;5027882;28;20452;-74
2021/09/22 05:42:40;;;;;;;12.80;7.85;;;;;;;;;;5021049;28;20145;-74
2021/09/22 05:45:14;;;;;;;11.23;7.97;;;;;;;;;;5023452;28;20018;-74
2021/09/22 05:47:41;;;;;;;12.77;7.78;;;;;;;;;;5046996;28;20047;-74
2021/09/22 05:50:13;;;;;;;12.40;8.02;;;;;;;;;;5029983;28;20029;-73
2021/09/22 05:52:40;;;;;;;10.20;7.57;;;;;;;;;;5025376;28;20151;-73
2021/09/22 05:55:06;;;;;;;10.63;7.88;;;;;;;;;;5021880;28;20509;-74
2021/09/22 05:57:32;;;;;;;10.85;8.20;;;;;;;;;;5032512;28;20033;-73
2021/09/22 05:59:58;;;;;;;13.48;8.05;;;;;;;;;;5028874;28;20033;-74
2021/09/22 06:02:24;;;;;;;13.43;8.90;;;;;;;;;;5023678;28;20018;-73
2021/09/22 06:04:50;;;;;;;14.50;9.18;;;;;;;;;;5022318;28;20083;-72
2021/09/22 06:07:16;;;;;;;11.23;8.55;;;;;;;;;;5016525;28;20029;-71
2021/09/22 06:09:42;;;;;;;13.15;9.05;;;;;;;;;;5014644;28;20050;-75
2021/09/22 06:12:14;;;;;;;13.05;8.45;;;;;;;;;;5026005;28;20483;-69
2021/09/22 06:14:45;;;;;;;9.80;7.80;;;;;;;;;;5000816;28;20033;-71
2021/09/22 06:17:13;;;;;;;10.05;7.25;;;;;;;;;;4998865;28;20029;-73
2021/09/22 06:19:39;;;;;;;14.32;7.53;;;;;;;;;;5019230;28;20110;-69
2021/09/22 06:22:05;;;;;;;12.07;8.02;;;;;;;;;;5018170;28;20022;-70
2021/09/22 06:24:32;;;;;;;13.65;8.13;;;;;;;;;;5034633;28;20108;-71
2021/09/22 06:26:58;;;;;;;9.13;7.55;;;;;;;;;;5040193;28;20480;-73
2021/09/22 06:29:24;;;;;;;11.27;7.50;;;;;;;;;;5031603;28;20025;-69
2021/09/22 06:31:50;;;;;;;11.30;7.43;;;;;;;;;;5023130;28;20532;-74
2021/09/22 06:34:16;;;;;;;9.77;7.03;;;;;;;;;;5037867;28;20033;-73
2021/09/22 06:36:42;;;;;;;12.18;7.85;;;;;;;;;;5033431;28;20104;-69
2021/09/22 06:39:08;;;;;;;9.88;7.85;;;;;;;;;;5022152;28;20045;-71
2021/09/22 06:41:34;;;;;;;11.95;8.10;;;;;;;;;;5012595;28;20121;-73
2021/09/22 06:44:01;;;;;;;12.32;7.93;;;;;;;;;;5014136;28;20036;-72
2021/09/22 06:46:27;;;;;;;10.52;7.35;;;;;;;;;;5019283;28;20032;-72
2021/09/22 06:49:14;;;;;;;8.63;7.05;;;;;;;;;;5006161;28;20121;-71
2021/09/22 06:51:40;;;;;;;9.93;7.40;;;;;;;;;;5008191;28;20491;-71
2021/09/22 06:54:06;;;;;;;14.90;7.45;;;;;;;;;;5003637;28;20029;-71
2021/09/22 06:56:32;;;;;;;10.82;7.65;;;;;;;;;;5029099;28;20037;-74
2021/09/22 06:58:59;;;;;;;13.20;7.60;;;;;;;;;;5022299;28;20113;-73
2021/09/22 07:01:25;;;;;;;12.98;7.68;;;;;;;;;;5020641;28;20057;-73
2021/09/22 07:03:51;;;;;;;12.23;7.50;;;;;;;;;;5023677;28;20391;-69
2021/09/22 07:06:17;;;;;;;11.13;7.47;;;;;;;;;;5027852;28;20057;-72
2021/09/22 07:08:43;;;;;;;11.15;7.50;;;;;;;;;;5008919;28;20479;-73
2021/09/22 07:11:09;;;;;;;11.45;7.28;;;;;;;;;;5026240;28;20032;-72
2021/09/22 07:13:37;;;;;;;10.95;6.78;;;;;;;;;;5028613;28;20385;-74
2021/09/22 07:16:03;;;;;;;10.73;7.53;;;;;;;;;;5021687;28;20017;-73
2021/09/22 07:18:29;;;;;;;9.77;6.93;;;;;;;;;;5011568;28;20052;-73
2021/09/22 07:20:56;;;;;;;8.48;7.28;;;;;;;;;;5031322;28;20029;-69
2021/09/22 07:23:22;;;;;;;9.63;7.05;;;;;;;;;;5027876;28;20101;-69
2021/09/22 07:25:48;;;;;;;11.50;7.70;;;;;;;;;;5033331;28;20034;-69
2021/09/22 07:28:14;;;;;;;12.07;7.20;;;;;;;;;;5030309;28;20076;-69
2021/09/22 07:30:40;;;;;;;9.85;7.20;;;;;;;;;;5026755;28;20168;-69
2021/09/22 07:33:06;;;;;;;10.43;7.10;;;;;;;;;;5026330;28;20033;-69
2021/09/22 07:35:33;;;;;;;11.27;7.32;;;;;;;;;;5032822;28;20029;-72
2021/09/22 07:38:01;;;;;;;13.50;7.30;;;;;;;;;;5011599;28;20513;-69
2021/09/22 07:40:27;;;;;;;8.73;7.35;;;;;;;;;;5032933;28;20491;-70
2021/09/22 07:42:54;;;;;;;10.20;7.30;;;;;;;;;;5021607;28;20026;-70
2021/09/22 07:45:20;;;;;;;11.15;6.93;;;;;;;;;;5014307;28;20028;-69
2021/09/22 07:47:46;;;;;;;12.70;7.55;;;;;;;;;;5036835;28;20052;-68
2021/09/22 07:50:12;;;;;;;11.70;7.20;;;;;;;;;;5028289;28;20029;-69
2021/09/22 07:52:41;;;;;;;13.35;7.60;;;;;;;;;;5028579;28;20030;-74
2021/09/22 07:55:09;;;;;;;10.25;7.53;;;;;;;;;;5025358;28;20479;-71
2021/09/22 07:57:37;;;;;;;12.18;7.38;;;;;;;;;;5011468;28;20024;-73
2021/09/22 08:00:04;;;;;;;10.10;6.97;;;;;;;;;;5029444;28;20033;-75
2021/09/22 08:02:31;;;;;;;13.23;7.25;;;;;;;;;;5005238;28;20037;-74
2021/09/22 08:04:58;;;;;;;12.25;6.90;;;;;;;;;;5030596;28;20033;-75
2021/09/22 08:07:25;;;;;;;11.73;8.18;;;;;;;;;;5046876;28;20029;-70
2021/09/22 08:10:17;;;;;;;8.02;6.43;;;;;;;;;;5035469;28;20048;-70
2021/09/22 08:12:46;;;;;;;14.18;8.73;;;;;;;;;;5015150;28;20038;-70
2021/09/22 08:15:13;;;;;;;10.07;7.57;;;;;;;;;;5028096;28;20518;-72
2021/09/22 08:17:50;;;;;;;11.30;7.30;;;;;;;;;;5042927;28;20036;-71
2021/09/22 08:20:16;;;;;;;9.85;7.47;;;;;;;;;;5043918;28;20033;-72
2021/09/22 08:22:48;;;;;;;14.77;7.07;;;;;;;;;;5016750;28;20106;-73
2021/09/22 08:25:14;;;;;;;9.23;7.00;;;;;;;;;;5008979;28;20493;-69
2021/09/22 08:27:40;;;;;;;13.18;7.45;;;;;;;;;;5028666;28;20029;-71
2021/09/22 08:30:07;;;;;;;11.93;7.82;;;;;;;;;;5013630;28;20086;-70
2021/09/22 08:32:34;;;;;;;12.48;8.30;;;;;;;;;;5016500;28;20183;-70
2021/09/22 08:35:00;;;;;;;10.27;7.28;;;;;;;;;;5038161;28;20036;-73
2021/09/22 08:37:26;;;;;;;12.85;7.68;;;;;;;;;;5034346;28;20029;-70
2021/09/22 08:39:53;;;;;;;15.00;7.68;;;;;;;;;;5022869;28;20054;-72
2021/09/22 08:42:19;;;;;;;11.13;7.60;;;;;;;;;;5024944;28;20026;-71
2021/09/22 08:44:45;;;;;;;13.13;8.10;;;;;;;;;;5041319;28;20110;-72
2021/09/22 08:47:11;;;;;;;15.40;7.93;;;;;;;;;;5030429;28;20026;-72
2021/09/22 08:49:39;;;;;;;23.77;9.02;;;;;;;;;;5038156;28;20028;-69
2021/09/22 08:52:05;;;;;;;13.52;7.07;;;;;;;;;;5043978;28;20088;-69
2021/09/22 08:54:31;;;;;;;10.25;7.32;;;;;;;;;;5023182;28;20033;-71
2021/09/22 08:57:03;;;;;;;14.73;8.02;;;;;;;;;;5030864;28;20021;-68
2021/09/22 08:59:29;;;;;;;15.48;8.13;;;;;;;;;;5019529;28;20084;-70
2021/09/22 09:02:09;;;;;;;11.05;7.95;;;;;;;;;;5032477;28;20443;-68
2021/09/22 09:04:36;;;;;;;14.77;7.70;;;;;;;;;;5025793;28;20026;-66
2021/09/22 09:07:04;;;;;;;10.10;7.32;;;;;;;;;;5013187;28;20038;-68
2021/09/22 09:09:34;;;;;;;10.27;7.32;;;;;;;;;;5025027;28;20087;-72
2021/09/22 09:12:00;;;;;;;11.02;7.65;;;;;;;;;;5017252;28;20026;-72
2021/09/22 09:14:35;;;;;;;16.33;7.50;;;;;;;;;;5031150;28;20030;-73
2021/09/22 09:17:09;;;;;;;16.75;7.85;;;;;;;;;;5011388;28;20022;-75
2021/09/22 09:19:36;;;;;;;10.68;7.72;;;;;;;;;;5028136;28;20025;-72
2021/09/22 09:22:09;;;;;;;13.57;8.38;;;;;;;;;;5028926;28;20036;-71
2021/09/22 09:24:37;;;;;;;12.27;7.32;;;;;;;;;;5026547;28;20036;-71
2021/09/22 09:27:10;;;;;;;13.65;7.88;;;;;;;;;;5027468;28;20064;-70
2021/09/22 09:29:36;;;;;;;11.07;7.18;;;;;;;;;;5028520;28;20022;-71
2021/09/22 09:32:10;;;;;;;12.40;8.20;;;;;;;;;;5030326;28;20218;-70
2021/09/22 09:34:36;;;;;;;11.15;8.15;;;;;;;;;;5022077;28;20466;-70
2021/09/22 09:37:02;;;;;;;12.02;7.50;;;;;;;;;;5039321;28;20382;-70
2021/09/22 09:39:31;;;;;;;11.10;7.65;;;;;;;;;;5036738;28;20068;-68
2021/09/22 09:41:58;;;;;;;11.93;7.93;;;;;;;;;;5030260;28;20097;-70
2021/09/22 09:44:29;;;;;;;8.68;7.65;;;;;;;;;;5027358;28;20124;-71
2021/09/22 09:46:56;;;;;;;9.88;7.55;;;;;;;;;;5016327;28;20068;-67
2021/09/22 09:49:29;;;;;;;12.07;7.70;;;;;;;;;;5033702;28;20108;-68
2021/09/22 09:51:56;;;;;;;11.50;7.63;;;;;;;;;;5026256;28;20018;-71
2021/09/22 09:54:24;;;;;;;12.25;7.55;;;;;;;;;;5024790;28;20036;-71
2021/09/22 09:56:52;;;;;;;13.02;8.27;;;;;;;;;;5026874;28;20237;-71
2021/09/22 09:59:19;;;;;;;10.55;8.02;;;;;;;;;;5031307;28;20071;-71
2021/09/22 10:01:47;;;;;;;12.20;8.90;;;;;;;;;;5007874;28;20476;-74
2021/09/22 10:04:14;;;;;;;12.52;8.82;;;;;;;;;;5028628;28;20061;-72
2021/09/22 10:06:40;;;;;;;16.48;8.95;;;;;;;;;;5012966;28;20033;-70
2021/09/22 10:09:07;;;;;;;14.55;9.23;;;;;;;;;;5010956;28;20132;-69
2021/09/22 10:11:34;;;;;;;10.77;8.57;;;;;;;;;;5020311;28;20030;-68
2021/09/22 10:14:00;;;;;;;13.88;8.80;;;;;;;;;;5025882;28;20034;-69
2021/09/22 10:16:27;;;;;;;12.25;9.13;;;;;;;;;;5027785;28;20078;-72
2021/09/22 10:18:53;;;;;;;12.32;8.52;;;;;;;;;;5027731;28;20037;-69
2021/09/22 10:21:20;;;;;;;13.10;9.32;;;;;;;;;;5016239;28;20137;-71
2021/09/22 10:23:47;;;;;;;14.10;8.82;;;;;;;;;;5019996;28;20132;-71
2021/09/22 10:26:14;;;;;;;13.63;10.05;;;;;;;;;;5018740;28;20026;-72
2021/09/22 10:28:41;;;;;;;15.60;10.43;;;;;;;;;;5046059;28;20047;-70
2021/09/22 10:31:32;;;;;;;14.95;10.32;;;;;;;;;;5039669;28;20132;-71
2021/09/22 10:33:59;;;;;;;14.70;10.45;;;;;;;;;;5031480;28;20099;-72
2021/09/22 10:36:34;;;;;;;11.93;10.00;;;;;;;;;;5036558;28;20034;-71
2021/09/22 10:39:01;;;;;;;14.55;9.95;;;;;;;;;;5048960;28;20068;-72
2021/09/22 10:41:30;;;;;;;15.82;10.50;;;;;;;;;;5033190;28;20033;-71
2021/09/22 10:43:56;;;;;;;14.90;10.73;;;;;;;;;;5027475;28;20021;-72
2021/09/22 10:46:22;;;;;;;13.35;10.60;;;;;;;;;;5033552;28;20022;-72
2021/09/22 10:48:54;;;;;;;16.50;10.40;;;;;;;;;;5024102;28;20450;-70
2021/09/22 10:51:32;;;;;;;13.23;10.20;;;;;;;;;;5023393;28;20029;-71
2021/09/22 10:54:23;;;;;;;13.60;9.95;;;;;;;;;;5021693;28;20032;-70
2021/09/22 10:56:51;;;;;;;12.45;10.35;;;;;;;;;;5005571;28;20029;-71
2021/09/22 10:59:43;;;;;;;19.20;11.57;;;;;;;;;;5033603;28;20044;-71
2021/09/22 11:02:12;;;;;;;16.17;11.13;;;;;;;;;;5007277;28;20030;-70
2021/09/22 11:04:57;;;;;;;15.48;11.10;;;;;;;;;;5029870;28;20034;-71
2021/09/22 11:07:24;;;;;;;13.00;11.15;;;;;;;;;;5012099;28;20033;-71
2021/09/22 11:09:51;;;;;;;14.90;11.30;;;;;;;;;;5036102;28;20063;-71
2021/09/22 11:12:17;;;;;;;17.33;12.27;;;;;;;;;;5031911;28;20026;-71
2021/09/22 11:14:45;;;;;;;14.25;12.05;;;;;;;;;;5028323;28;20029;-71
2021/09/22 11:17:25;;;;;;;16.15;12.77;;;;;;;;;;5028058;28;20069;-71
2021/09/22 11:19:51;;;;;;;15.50;12.60;;;;;;;;;;5035742;28;20506;-70
2021/09/22 11:22:18;;;;;;;16.90;13.43;;;;;;;;;;5030032;28;20064;-71
2021/09/22 11:24:53;;;;;;;17.92;13.77;;;;;;;;;;5030806;28;20033;-71
2021/09/22 11:27:27;;;;;;;16.50;12.38;;;;;;;;;;5025690;28;20498;-71
2021/09/22 11:29:58;;;;;;;18.60;14.02;;;;;;;;;;5008690;28;20368;-70
2021/09/22 11:32:34;;;;;;;20.60;14.30;;;;;;;;;;5003795;28;20494;-71
2021/09/22 11:35:16;;;;;;;19.00;14.70;;;;;;;;;;5004549;28;20033;-70
2021/09/22 11:37:52;;;;;;;21.45;14.13;;;;;;;;;;5011698;28;20038;-72
2021/09/22 11:40:20;;;;;;;17.10;14.30;;;;;;;;;;5032941;28;20052;-71
2021/09/22 11:42:55;;;;;;;16.92;14.63;;;;;;;;;;5026140;28;20503;-72
2021/09/22 11:45:23;;;;;;;26.90;15.68;;;;;;;;;;5019845;28;20037;-71
2021/09/22 11:47:49;;;;;;;17.92;14.82;;;;;;;;;;5025001;28;20021;-71
2021/09/22 11:50:49;;;;;;;18.25;14.35;;;;;;;;;;5018715;28;20121;-71
2021/09/22 11:53:23;;;;;;;18.85;15.32;;;;;;;;;;4976486;28;20160;-70
2021/09/22 11:55:50;;;;;;;20.50;14.75;;;;;;;;;;4972714;28;20031;-71
2021/09/22 11:58:18;;;;;;;18.80;15.40;;;;;;;;;;4971771;28;20045;-71
2021/09/22 12:00:45;;;;;;;21.85;15.82;;;;;;;;;;4967145;28;20035;-70
2021/09/22 12:03:12;;;;;;;21.27;16.27;;;;;;;;;;4961036;28;20098;-71
2021/09/22 12:05:39;;;;;;;20.83;16.52;;;;;;;;;;4963542;28;20456;-72
2021/09/22 12:08:05;;;;;;;18.30;15.85;;;;;;;;;;4959785;28;20058;-71
2021/09/22 12:10:32;;;;;;;19.42;16.67;;;;;;;;;;4968500;28;20038;-71
2021/09/22 12:12:59;;;;;;;17.02;15.25;;;;;;;;;;4964722;28;20031;-71
2021/09/22 12:15:28;;;;;;;20.50;16.23;;;;;;;;;;4970448;28;20026;-72
2021/09/22 12:17:54;;;;;;;20.65;17.65;;;;;;;;;;4965430;28;20051;-71
2021/09/22 12:20:20;;;;;;;22.13;17.42;;;;;;;;;;4972124;28;20134;-72
2021/09/22 12:23:06;;;;;;;22.50;18.00;;;;;;;;;;4972543;28;20045;-72
2021/09/22 12:25:39;;;;;;;21.65;17.80;;;;;;;;;;4973144;28;20113;-73
2021/09/22 12:28:05;;;;;;;22.02;18.08;;;;;;;;;;4971983;28;20589;-71
2021/09/22 12:30:38;;;;;;;20.85;18.00;;;;;;;;;;5020041;28;20169;-72
2021/09/22 12:33:08;;;;;;;22.92;18.65;;;;;;;;;;5023629;28;20031;-71
2021/09/22 12:35:38;;;;;;;23.88;18.88;;;;;;;;;;5012516;28;20384;-71
2021/09/22 12:38:06;;;;;;;20.55;17.13;;;;;;;;;;5011799;28;20022;-71
2021/09/22 12:40:38;;;;;;;27.15;16.70;;;;;;;;;;5012068;28;20056;-71
2021/09/22 12:43:06;;;;;;;25.00;17.50;;;;;;;;;;5012832;28;20022;-71
2021/09/22 12:45:33;;;;;;;23.08;18.52;;;;;;;;;;5012134;28;21360;-72
2021/09/22 12:48:02;;;;;;;21.42;17.73;;;;;;;;;;5011281;28;20533;-70
2021/09/22 12:50:41;;;;;;;22.30;18.30;;;;;;;;;;5012986;28;20061;-72
2021/09/22 12:53:12;;;;;;;21.17;17.25;;;;;;;;;;5013039;28;20049;-71
2021/09/22 12:55:39;;;;;;;22.02;16.90;;;;;;;;;;5013072;28;20030;-69
2021/09/22 12:58:06;;;;;;;19.10;15.70;;;;;;;;;;5013619;28;20361;-72
2021/09/22 13:00:34;;;;;;;20.42;17.10;;;;;;;;;;5013706;28;20144;-69
2021/09/22 13:03:09;;;;;;;17.17;15.30;;;;;;;;;;5016359;28;20029;-71
2021/09/22 13:05:39;;;;;;;19.02;16.63;;;;;;;;;;5017078;28;20029;-72
2021/09/22 13:08:09;;;;;;;17.67;15.77;;;;;;;;;;5012781;28;20022;-72
2021/09/22 13:10:55;;;;;;;17.95;15.57;;;;;;;;;;4995969;28;20040;-71
2021/09/22 13:13:22;;;;;;;19.70;15.30;;;;;;;;;;5017222;28;20032;-72
2021/09/22 13:15:51;;;;;;;18.85;16.55;;;;;;;;;;5012799;28;20064;-72
2021/09/22 13:18:17;;;;;;;18.65;16.65;;;;;;;;;;5012930;28;20088;-72
2021/09/22 13:20:43;;;;;;;24.45;18.05;;;;;;;;;;5029123;28;20123;-72
2021/09/22 13:23:19;;;;;;;25.88;18.75;;;;;;;;;;5031924;28;20037;-72
2021/09/22 13:25:45;;;;;;;23.50;17.42;;;;;;;;;;5032395;28;20025;-72
2021/09/22 13:28:11;;;;;;;21.77;17.08;;;;;;;;;;5032510;28;20083;-72
2021/09/22 13:30:37;;;;;;;22.08;17.90;;;;;;;;;;5030918;28;20116;-71
2021/09/22 13:33:03;;;;;;;21.15;17.45;;;;;;;;;;5030185;28;20021;-72
2021/09/22 13:35:29;;;;;;;21.98;17.52;;;;;;;;;;5031749;28;20044;-71
2021/09/22 13:37:55;;;;;;;22.80;17.83;;;;;;;;;;5046172;28;20559;-72
2021/09/22 13:40:22;;;;;;;21.83;17.38;;;;;;;;;;5032028;28;20449;-71
2021/09/22 13:42:48;;;;;;;26.60;18.05;;;;;;;;;;5028579;28;20033;-72
2021/09/22 13:45:14;;;;;;;20.75;18.55;;;;;;;;;;5032395;28;20013;-72
2021/09/22 13:47:41;;;;;;;21.08;17.98;;;;;;;;;;5032165;28;20167;-72
2021/09/22 13:50:07;;;;;;;22.00;18.10;;;;;;;;;;5030624;28;20025;-72
2021/09/22 13:52:33;;;;;;;23.80;20.30;;;;;;;;;;5031738;28;20112;-72
2021/09/22 13:54:59;;;;;;;29.15;19.88;;;;;;;;;;5027840;28;20029;-69
2021/09/22 13:57:25;;;;;;;25.23;19.30;;;;;;;;;;5025390;28;20022;-71
2021/09/22 13:59:51;;;;;;;22.67;19.17;;;;;;;;;;5030543;28;20414;-72
2021/09/22 14:02:20;;;;;;;25.60;19.25;;;;;;;;;;5029045;28;20018;-72
2021/09/22 14:04:46;;;;;;;22.42;18.38;;;;;;;;;;5018100;28;20490;-72
2021/09/22 14:07:15;;;;;;;24.45;19.55;;;;;;;;;;5019197;28;20098;-71
2021/09/22 14:09:42;;;;;;;25.40;19.73;;;;;;;;;;5034197;28;20029;-72
2021/09/22 14:12:08;;;;;;;22.02;19.42;;;;;;;;;;5026966;28;20109;-72
2021/09/22 14:14:34;;;;;;;22.92;18.60;;;;;;;;;;5029441;28;20083;-72
2021/09/22 14:17:02;;;;;;;22.85;19.13;;;;;;;;;;5013002;28;20076;-71
2021/09/22 14:19:28;;;;;;;25.48;18.80;;;;;;;;;;5014880;28;20411;-71
2021/09/22 14:21:54;;;;;;;23.90;19.73;;;;;;;;;;5023676;28;20084;-71
2021/09/22 14:24:20;;;;;;;21.05;18.85;;;;;;;;;;5030139;28;20032;-71
2021/09/22 14:26:47;;;;;;;24.85;19.70;;;;;;;;;;5021629;28;20025;-71
2021/09/22 14:29:13;;;;;;;21.88;18.05;;;;;;;;;;5022926;28;20030;-71